Terminal Aerodrome Forecast
Issued by NWS Corpus Christi, TX

Home | Current Version | Previous Version | Text Only | Print | Product List | Glossary On
Versions: 1 2 3 4 5 6 7 8 9 10 11 12 13 14 15 16 17 18 19 20
510
FTUS44 KCRP 231754 AAA
TAFVCT
TAF AMD
KVCT 231754Z 2318/2418 13012KT P6SM VCSH FEW035 SCT250
     FM240000 12008KT P6SM FEW020
     FM241000 08005KT 4SM BR SCT015 SCT250
     FM241500 12010KT P6SM VCSH SCT030=

USA.gov is the U.S. government's official web portal to all federal, state and local government web resources and services.